createdAt,value
2018-07-12T00:02:18.383Z,13.89
2018-07-12T00:04:46.118Z,13.87
2018-07-12T00:07:14.269Z,13.86
2018-07-12T00:09:41.567Z,13.76
2018-07-12T00:12:08.849Z,13.72
2018-07-12T00:14:36.144Z,13.69
2018-07-12T00:17:03.459Z,13.64
2018-07-12T00:19:30.872Z,13.62
2018-07-12T00:21:58.208Z,13.64
2018-07-12T00:24:25.487Z,13.57
2018-07-12T00:26:52.765Z,13.55
2018-07-12T00:29:20.067Z,13.55
2018-07-12T00:31:47.397Z,13.54
2018-07-12T00:34:14.690Z,13.52
2018-07-12T00:36:42.028Z,13.46
2018-07-12T00:39:09.478Z,13.37
2018-07-12T00:41:36.768Z,13.31
2018-07-12T00:44:04.081Z,13.33
2018-07-12T00:46:31.423Z,13.32
2018-07-12T00:48:58.719Z,13.15
2018-07-12T00:51:26.020Z,13.12
2018-07-12T00:53:53.320Z,13.19
2018-07-12T00:56:20.700Z,13.20
2018-07-12T00:58:47.976Z,13.23
2018-07-12T01:01:15.357Z,13.21
2018-07-12T01:03:42.637Z,13.13
2018-07-12T01:06:09.969Z,13.16
2018-07-12T01:08:37.287Z,13.15
2018-07-12T01:11:04.630Z,13.13
2018-07-12T01:13:31.959Z,13.08
2018-07-12T01:15:59.273Z,13.09
2018-07-12T01:18:26.567Z,13.09
2018-07-12T01:20:53.863Z,13.07
2018-07-12T01:23:21.140Z,13.10
2018-07-12T01:25:48.448Z,13.06
2018-07-12T01:28:15.755Z,13.09
2018-07-12T01:30:43.188Z,13.13
2018-07-12T01:33:10.652Z,13.07
2018-07-12T01:35:37.986Z,13.02
2018-07-12T01:38:05.288Z,12.93
2018-07-12T01:40:32.597Z,12.84
2018-07-12T01:42:59.920Z,12.78
2018-07-12T01:45:27.308Z,12.71
2018-07-12T01:47:54.603Z,12.64
2018-07-12T01:50:21.988Z,12.57
2018-07-12T01:52:49.267Z,12.56
2018-07-12T01:55:16.560Z,12.59
2018-07-12T01:57:43.840Z,12.58
2018-07-12T02:00:11.138Z,12.62
2018-07-12T02:02:38.553Z,12.61
2018-07-12T02:05:06.223Z,12.61
2018-07-12T02:07:33.509Z,12.64
2018-07-12T02:10:00.896Z,12.62
2018-07-12T02:12:28.188Z,12.56
2018-07-12T02:14:55.464Z,12.50
2018-07-12T02:17:22.773Z,12.45
2018-07-12T02:19:56.308Z,12.43
2018-07-12T02:22:23.676Z,12.33
2018-07-12T02:24:50.957Z,12.36
2018-07-12T02:27:18.272Z,12.39
2018-07-12T02:29:45.737Z,12.42
2018-07-12T02:32:13.039Z,12.40
2018-07-12T02:34:40.353Z,12.43
2018-07-12T02:37:07.669Z,12.40
2018-07-12T02:39:34.972Z,12.36
2018-07-12T02:42:02.284Z,12.35
2018-07-12T02:44:29.557Z,12.22
2018-07-12T02:46:56.846Z,12.21
2018-07-12T02:49:24.215Z,12.22
2018-07-12T02:51:51.508Z,12.28
2018-07-12T02:54:18.861Z,12.33
2018-07-12T02:56:46.160Z,12.29
2018-07-12T02:59:13.465Z,12.27
2018-07-12T03:01:40.776Z,12.24
2018-07-12T03:04:08.084Z,12.19
2018-07-12T03:06:35.445Z,12.22
2018-07-12T03:09:02.826Z,12.20
2018-07-12T03:11:30.121Z,12.22
2018-07-12T03:13:57.420Z,12.04
2018-07-12T03:16:41.755Z,12.01
2018-07-12T03:19:09.092Z,11.88
2018-07-12T03:21:36.448Z,11.80
2018-07-12T03:24:03.743Z,11.85
2018-07-12T03:26:31.047Z,11.91
2018-07-12T03:28:58.360Z,11.96
2018-07-12T03:31:25.744Z,11.92
2018-07-12T03:33:53.137Z,11.95
2018-07-12T03:36:20.488Z,11.93
2018-07-12T03:38:47.798Z,11.92
2018-07-12T03:41:15.092Z,12.00
2018-07-12T03:43:42.396Z,12.04
2018-07-12T03:46:09.749Z,12.06
2018-07-12T03:48:37.168Z,12.08
2018-07-12T03:51:04.471Z,12.11
2018-07-12T03:53:31.809Z,12.07
2018-07-12T03:55:59.117Z,12.05
2018-07-12T03:58:26.417Z,12.03
2018-07-12T04:00:53.718Z,12.09
2018-07-12T04:03:21.034Z,12.13
2018-07-12T04:05:48.813Z,12.20
2018-07-12T04:08:16.100Z,12.24
2018-07-12T04:10:43.383Z,12.29
2018-07-12T04:13:10.715Z,12.32
2018-07-12T04:15:38.044Z,12.36
2018-07-12T04:18:05.350Z,12.23
2018-07-12T04:20:32.649Z,12.39
2018-07-12T04:22:59.951Z,12.37
2018-07-12T04:25:27.271Z,12.36
2018-07-12T04:27:54.628Z,12.37
2018-07-12T04:30:21.913Z,12.41
2018-07-12T04:32:49.201Z,12.41
2018-07-12T04:35:16.545Z,12.41
2018-07-12T04:37:43.898Z,12.44
2018-07-12T04:40:11.196Z,12.45
2018-07-12T04:42:38.532Z,12.44
2018-07-12T04:45:05.854Z,12.41
2018-07-12T04:47:33.201Z,12.44
2018-07-12T04:50:00.499Z,12.55
2018-07-12T04:52:27.829Z,12.58
2018-07-12T04:54:55.117Z,12.60
2018-07-12T04:57:22.453Z,12.65
2018-07-12T04:59:49.778Z,12.66
2018-07-12T05:02:17.068Z,12.69
2018-07-12T05:04:44.370Z,12.75
2018-07-12T05:07:11.922Z,12.79
2018-07-12T05:09:39.232Z,12.88
2018-07-12T05:12:06.540Z,12.95
2018-07-12T05:14:33.877Z,13.00
2018-07-12T05:17:01.157Z,13.12
2018-07-12T05:19:28.442Z,13.24
2018-07-12T05:21:55.782Z,13.34
2018-07-12T05:24:23.079Z,13.45
2018-07-12T05:26:50.374Z,13.52
2018-07-12T05:29:17.669Z,13.59
2018-07-12T05:31:44.997Z,13.80
2018-07-12T05:34:12.284Z,13.89
2018-07-12T05:36:53.084Z,13.89
2018-07-12T05:39:22.053Z,13.96
2018-07-12T05:41:51.105Z,14.15
2018-07-12T05:44:19.737Z,14.29
2018-07-12T05:46:48.718Z,14.31
2018-07-12T05:49:17.405Z,14.21
2018-07-12T05:51:46.808Z,14.28
2018-07-12T05:54:16.082Z,14.42
2018-07-12T05:56:44.796Z,14.69
2018-07-12T05:59:13.546Z,14.74
2018-07-12T06:01:53.211Z,14.93
2018-07-12T06:04:21.813Z,15.13
2018-07-12T06:06:51.174Z,15.34
2018-07-12T06:09:19.859Z,15.59
2018-07-12T06:11:48.445Z,15.65
2018-07-12T06:14:16.983Z,15.83
2018-07-12T06:16:45.567Z,16.04
2018-07-12T06:19:14.332Z,16.34
2018-07-12T06:21:42.943Z,16.26
2018-07-12T06:24:11.614Z,16.48
2018-07-12T06:26:40.344Z,16.55
2018-07-12T06:29:08.936Z,16.82
2018-07-12T06:31:37.481Z,16.67
2018-07-12T06:34:06.122Z,16.80
2018-07-12T06:36:34.642Z,16.86
2018-07-12T06:39:03.471Z,17.03
2018-07-12T06:41:32.204Z,16.99
2018-07-12T06:44:00.777Z,16.95
2018-07-12T06:46:29.375Z,16.89
2018-07-12T06:48:57.946Z,16.96
2018-07-12T06:51:26.484Z,16.87
2018-07-12T06:53:55.066Z,16.74
2018-07-12T06:56:23.628Z,16.80
2018-07-12T06:58:52.435Z,16.99
2018-07-12T07:01:21.814Z,16.99
2018-07-12T07:03:50.366Z,17.01
2018-07-12T07:06:19.055Z,17.02
2018-07-12T07:08:47.676Z,16.99
2018-07-12T07:11:16.490Z,17.18
2018-07-12T07:13:45.440Z,17.00
2018-07-12T07:16:14.057Z,17.00
2018-07-12T07:18:42.723Z,17.04
2018-07-12T07:21:11.830Z,17.11
2018-07-12T07:23:40.387Z,17.09
2018-07-12T07:26:09.032Z,17.12
2018-07-12T07:28:37.600Z,17.24
2018-07-12T07:31:06.316Z,17.41
2018-07-12T07:33:34.843Z,17.17
2018-07-12T07:36:03.442Z,17.34
2018-07-12T07:38:31.979Z,17.25
2018-07-12T07:41:00.569Z,17.21
2018-07-12T07:43:29.449Z,17.09
2018-07-12T07:45:58.040Z,17.44
2018-07-12T07:48:27.016Z,17.37
2018-07-12T07:50:55.648Z,17.62
2018-07-12T07:53:24.341Z,17.71
2018-07-12T07:55:52.915Z,17.62
2018-07-12T07:58:21.465Z,17.71
2018-07-12T08:00:50.060Z,17.87
2018-07-12T08:03:29.237Z,18.13
2018-07-12T08:05:57.942Z,18.09
2018-07-12T08:08:27.735Z,18.23
2018-07-12T08:10:56.457Z,18.31
2018-07-12T08:13:25.202Z,18.34
2018-07-12T08:15:53.745Z,18.23
2018-07-12T08:18:22.294Z,18.34
2018-07-12T08:20:50.864Z,18.41
2018-07-12T08:23:19.556Z,18.37
2018-07-12T08:25:48.208Z,18.22
2018-07-12T08:28:27.580Z,18.41
2018-07-12T08:30:56.497Z,18.07
2018-07-12T08:33:25.575Z,18.30
2018-07-12T08:35:54.033Z,18.32
2018-07-12T08:38:22.695Z,18.43
2018-07-12T08:40:51.221Z,18.49
2018-07-12T08:43:19.800Z,18.68
2018-07-12T08:45:48.375Z,19.02
2018-07-12T08:48:16.973Z,19.30
2018-07-12T08:50:45.539Z,19.49
2018-07-12T08:53:14.446Z,19.37
2018-07-12T08:55:43.000Z,19.22
2018-07-12T08:58:13.463Z,19.47
2018-07-12T09:00:42.448Z,19.80
2018-07-12T09:03:11.118Z,19.56
2018-07-12T09:05:39.727Z,19.46
2018-07-12T09:08:08.310Z,19.48
2018-07-12T09:10:37.040Z,19.21
2018-07-12T09:13:05.781Z,19.37
2018-07-12T09:15:34.364Z,19.44
2018-07-12T09:18:02.938Z,19.60
2018-07-12T09:20:34.407Z,19.82
2018-07-12T09:23:02.989Z,20.01
2018-07-12T09:25:31.584Z,20.25
2018-07-12T09:28:00.128Z,20.15
2018-07-12T09:30:28.831Z,20.10
2018-07-12T09:32:57.701Z,20.16
2018-07-12T09:35:26.492Z,19.76
2018-07-12T09:37:55.105Z,20.02
2018-07-12T09:40:23.700Z,20.24
2018-07-12T09:42:52.527Z,20.16
2018-07-12T09:45:21.595Z,20.40
2018-07-12T09:47:50.147Z,20.44
2018-07-12T09:50:18.733Z,20.47
2018-07-12T09:52:47.292Z,20.17
2018-07-12T09:55:16.140Z,19.91
2018-07-12T09:57:55.831Z,20.10
2018-07-12T10:00:29.536Z,20.31
2018-07-12T10:03:03.451Z,20.34
2018-07-12T10:05:40.185Z,20.13
2018-07-12T10:08:13.999Z,20.19
2018-07-12T10:10:49.337Z,20.48
2018-07-12T10:13:30.049Z,20.78
2018-07-12T10:16:08.653Z,20.75
2018-07-12T10:18:37.424Z,21.00
2018-07-12T10:21:06.076Z,21.18
2018-07-12T10:23:34.671Z,21.39
2018-07-12T10:26:03.258Z,21.29
2018-07-12T10:28:31.804Z,21.72
2018-07-12T10:31:00.497Z,22.05
2018-07-12T10:33:29.110Z,22.31
2018-07-12T10:35:57.725Z,22.43
2018-07-12T10:38:26.329Z,21.86
2018-07-12T10:40:54.894Z,22.02
2018-07-12T10:43:23.614Z,22.49
2018-07-12T10:45:52.362Z,22.05
2018-07-12T10:48:20.980Z,21.87
2018-07-12T10:50:49.700Z,21.89
2018-07-12T10:53:18.251Z,21.89
2018-07-12T10:55:46.879Z,22.06
2018-07-12T10:58:15.558Z,21.91
2018-07-12T11:00:44.204Z,22.38
2018-07-12T11:03:13.818Z,22.56
2018-07-12T11:05:42.407Z,22.37
2018-07-12T11:08:11.034Z,22.61
2018-07-12T11:10:39.629Z,23.00
2018-07-12T11:13:18.413Z,23.03
2018-07-12T11:24:18.568Z,23.23
2018-07-12T11:26:47.200Z,23.06
2018-07-12T11:29:15.800Z,22.94
2018-07-12T11:31:44.347Z,23.12
2018-07-12T11:34:13.015Z,22.99
2018-07-12T11:36:41.611Z,23.21
2018-07-12T11:39:10.430Z,23.10
2018-07-12T11:41:39.050Z,22.96
2018-07-12T11:44:07.571Z,23.37
2018-07-12T11:46:36.184Z,23.25
2018-07-12T11:49:04.765Z,22.82
2018-07-12T11:51:33.365Z,22.68
2018-07-12T11:54:01.960Z,22.97
2018-07-12T11:56:30.543Z,22.73
2018-07-12T11:58:59.169Z,22.57
2018-07-12T12:01:27.829Z,23.00
2018-07-12T12:03:56.325Z,22.88
2018-07-12T12:06:24.911Z,22.70
2018-07-12T12:08:53.469Z,23.18
2018-07-12T12:11:22.752Z,23.19
2018-07-12T12:13:51.700Z,23.19
2018-07-12T12:16:20.424Z,22.62
2018-07-12T12:18:48.985Z,22.81
2018-07-12T12:21:21.875Z,23.24
2018-07-12T12:23:54.071Z,23.53
2018-07-12T12:26:23.909Z,23.69
2018-07-12T12:28:52.647Z,23.98
2018-07-12T12:31:31.565Z,24.20
2018-07-12T12:34:00.225Z,24.34
2018-07-12T12:36:28.972Z,23.56
2018-07-12T12:38:57.660Z,23.45
2018-07-12T12:41:26.235Z,23.18
2018-07-12T12:43:54.983Z,22.91
2018-07-12T12:46:24.031Z,22.87
2018-07-12T12:48:52.606Z,23.17
2018-07-12T12:51:21.318Z,22.99
2018-07-12T12:53:49.968Z,22.91
2018-07-12T12:56:18.712Z,22.67
2018-07-12T12:58:47.383Z,23.05
2018-07-12T13:01:15.986Z,23.29
2018-07-12T13:03:44.608Z,23.33
2018-07-12T13:06:13.267Z,23.78
2018-07-12T13:08:41.976Z,23.96
2018-07-12T13:11:10.635Z,23.87
2018-07-12T13:13:39.314Z,24.01
2018-07-12T13:16:07.927Z,24.19
2018-07-12T13:18:36.537Z,23.91
2018-07-12T13:21:05.513Z,23.48
2018-07-12T13:23:34.093Z,23.68
2018-07-12T13:26:02.693Z,23.44
2018-07-12T13:28:31.281Z,23.62
2018-07-12T13:30:59.860Z,23.53
2018-07-12T13:33:28.676Z,23.60
2018-07-12T13:35:57.229Z,23.23
2018-07-12T13:38:25.814Z,23.55
2018-07-12T13:40:54.415Z,23.47
2018-07-12T13:43:22.936Z,23.66
2018-07-12T13:45:51.544Z,23.63
2018-07-12T13:48:20.110Z,24.03
2018-07-12T13:50:48.677Z,23.73
2018-07-12T13:53:17.230Z,23.31
2018-07-12T13:55:45.926Z,23.94
2018-07-12T13:58:14.518Z,23.99
2018-07-12T14:00:43.081Z,24.29
2018-07-12T14:03:11.979Z,24.32
2018-07-12T14:05:40.624Z,23.91
2018-07-12T14:08:09.173Z,23.96
2018-07-12T14:10:37.769Z,23.92
2018-07-12T14:13:06.763Z,23.80
2018-07-12T14:15:35.350Z,23.99
2018-07-12T14:18:03.888Z,24.03
2018-07-12T14:20:32.537Z,24.29
2018-07-12T14:23:01.132Z,24.15
2018-07-12T14:25:29.659Z,24.31
2018-07-12T14:27:58.207Z,24.32
2018-07-12T14:30:26.861Z,24.12
2018-07-12T14:32:56.200Z,24.01
2018-07-12T14:35:36.857Z,23.83
2018-07-12T14:38:06.195Z,23.51
2018-07-12T14:40:35.590Z,23.99
2018-07-12T14:43:05.097Z,24.06
2018-07-12T14:45:33.786Z,24.16
2018-07-12T14:48:03.214Z,23.97
2018-07-12T14:50:31.885Z,24.05
2018-07-12T14:53:01.130Z,23.97
2018-07-12T14:55:29.924Z,23.94
2018-07-12T14:57:58.462Z,24.25
2018-07-12T15:00:27.052Z,24.31
2018-07-12T15:02:55.661Z,24.47
2018-07-12T15:05:24.449Z,24.44
2018-07-12T15:07:53.057Z,24.68
2018-07-12T15:10:21.743Z,24.80
2018-07-12T15:12:50.318Z,24.49
2018-07-12T15:15:19.519Z,24.21
2018-07-12T15:17:48.100Z,24.10
2018-07-12T15:20:16.705Z,23.62
2018-07-12T15:22:45.297Z,23.33
2018-07-12T15:25:14.669Z,23.53
2018-07-12T15:27:43.262Z,23.27
2018-07-12T15:30:11.857Z,23.38
2018-07-12T15:32:40.423Z,23.94
2018-07-12T15:35:09.127Z,24.45
2018-07-12T15:37:37.836Z,24.44
2018-07-12T15:40:06.421Z,24.72
2018-07-12T15:42:35.252Z,24.84
2018-07-12T15:45:03.914Z,24.95
2018-07-12T15:47:32.493Z,24.99
2018-07-12T15:50:01.232Z,25.20
2018-07-12T15:52:29.787Z,25.14
2018-07-12T15:54:58.386Z,24.70
2018-07-12T15:57:27.271Z,24.85
2018-07-12T15:59:55.872Z,24.76
2018-07-12T16:02:24.419Z,24.56
2018-07-12T16:04:53.012Z,24.32
2018-07-12T16:07:21.808Z,24.17
2018-07-12T16:09:50.414Z,24.18
2018-07-12T16:12:19.104Z,24.32
2018-07-12T16:14:47.711Z,24.38
2018-07-12T16:17:17.457Z,24.65
2018-07-12T16:19:46.922Z,24.44
2018-07-12T16:22:16.380Z,24.46
2018-07-12T16:24:45.790Z,24.52
2018-07-12T16:27:14.396Z,24.46
2018-07-12T16:29:43.140Z,24.47
2018-07-12T16:32:11.712Z,24.42
2018-07-12T16:34:40.282Z,24.25
2018-07-12T16:37:11.766Z,24.45
2018-07-12T16:39:40.375Z,24.38
2018-07-12T16:42:08.978Z,24.16
2018-07-12T16:44:37.672Z,23.74
2018-07-12T16:47:07.052Z,23.52
2018-07-12T16:49:35.680Z,23.79
2018-07-12T16:52:04.229Z,23.72
2018-07-12T16:54:33.243Z,24.04
2018-07-12T16:57:01.867Z,23.81
2018-07-12T16:59:30.410Z,23.67
2018-07-12T17:01:59.009Z,23.73
2018-07-12T17:04:27.564Z,23.66
2018-07-12T17:06:56.264Z,23.76
2018-07-12T17:09:24.999Z,23.76
2018-07-12T17:11:53.596Z,23.82
2018-07-12T17:14:22.273Z,23.62
2018-07-12T17:16:50.866Z,23.65
2018-07-12T17:19:19.466Z,23.55
2018-07-12T17:21:48.123Z,23.40
2018-07-12T17:24:16.821Z,23.27
2018-07-12T17:26:45.441Z,23.30
2018-07-12T17:29:14.079Z,23.45
2018-07-12T17:31:42.625Z,23.23
2018-07-12T17:34:11.238Z,23.30
2018-07-12T17:36:39.897Z,23.37
2018-07-12T17:39:09.282Z,23.25
2018-07-12T17:44:28.057Z,23.01
2018-07-12T17:46:56.645Z,22.93
2018-07-12T17:49:25.335Z,22.58
2018-07-12T17:57:34.575Z,22.24
2018-07-12T18:00:03.273Z,22.14
2018-07-12T18:02:31.845Z,22.02
2018-07-12T18:05:01.912Z,21.89
2018-07-12T18:07:31.751Z,21.71
2018-07-12T18:10:01.212Z,21.58
2018-07-12T18:12:30.767Z,21.30
2018-07-12T18:14:59.350Z,21.25
2018-07-12T18:17:27.931Z,21.25
2018-07-12T18:19:56.479Z,21.05
2018-07-12T18:22:25.118Z,20.97
2018-07-12T18:24:53.836Z,20.93
2018-07-12T18:27:22.651Z,20.92
2018-07-12T18:29:51.224Z,20.96
2018-07-12T18:32:20.037Z,20.96
2018-07-12T18:34:48.824Z,20.95
2018-07-12T18:37:17.568Z,20.97
2018-07-12T18:39:46.256Z,20.88
2018-07-12T18:42:14.987Z,20.83
2018-07-12T18:44:43.871Z,20.68
2018-07-12T18:47:12.640Z,20.59
2018-07-12T18:49:41.361Z,20.51
2018-07-12T18:52:28.832Z,20.46
2018-07-12T18:54:57.430Z,20.47
2018-07-12T18:57:26.154Z,20.44
2018-07-12T18:59:54.734Z,20.31
2018-07-12T19:02:23.325Z,20.26
2018-07-12T19:04:51.896Z,20.18
2018-07-12T19:07:20.938Z,20.11
2018-07-12T19:09:49.554Z,20.05
2018-07-12T19:12:18.336Z,20.05
2018-07-12T19:14:47.030Z,19.89
2018-07-12T19:17:15.640Z,19.79
2018-07-12T19:19:44.353Z,19.68
2018-07-12T19:22:13.132Z,19.61
2018-07-12T19:24:41.992Z,19.55
2018-07-12T19:27:11.057Z,19.44
2018-07-12T19:29:39.603Z,19.38
2018-07-12T19:32:08.351Z,19.26
2018-07-12T19:34:37.221Z,19.12
2018-07-12T19:37:05.777Z,18.93
2018-07-12T19:39:34.357Z,18.80
2018-07-12T19:42:02.911Z,18.75
2018-07-12T19:44:31.498Z,18.61
2018-07-12T19:47:00.579Z,18.57
2018-07-12T19:49:29.132Z,18.63
2018-07-12T19:51:57.691Z,18.49
2018-07-12T19:54:28.672Z,18.52
2018-07-12T19:56:58.349Z,18.50
2018-07-12T19:59:27.006Z,18.40
2018-07-12T20:01:55.562Z,18.39
2018-07-12T20:04:24.476Z,18.45
2018-07-12T20:06:53.913Z,18.52
2018-07-12T20:09:22.627Z,18.57
2018-07-12T20:11:51.183Z,18.63
2018-07-12T20:14:20.055Z,18.61
2018-07-12T20:16:48.625Z,18.55
2018-07-12T20:19:17.221Z,18.44
2018-07-12T20:21:45.787Z,18.36
2018-07-12T20:24:14.380Z,18.25
2018-07-12T20:26:42.947Z,18.17
2018-07-12T20:29:11.645Z,18.05
2018-07-12T20:31:40.490Z,18.05
2018-07-12T20:34:09.068Z,17.94
2018-07-12T20:36:37.753Z,17.87
2018-07-12T20:39:07.800Z,17.88
2018-07-12T20:41:36.496Z,17.93
2018-07-12T20:44:05.065Z,17.97
2018-07-12T20:46:33.610Z,17.97
2018-07-12T20:49:02.171Z,17.94
2018-07-12T20:51:30.777Z,17.97
2018-07-12T20:53:59.361Z,17.93
2018-07-12T20:56:27.984Z,17.88
2018-07-12T20:58:56.575Z,17.83
2018-07-12T21:01:25.145Z,17.76
2018-07-12T21:03:54.543Z,17.72
2018-07-12T21:06:23.235Z,17.66
2018-07-12T21:08:51.799Z,17.57
2018-07-12T21:11:20.389Z,17.58
2018-07-12T21:13:48.936Z,17.56
2018-07-12T21:16:17.521Z,17.56
2018-07-12T21:18:46.104Z,17.53
2018-07-12T21:21:15.065Z,17.47
2018-07-12T21:23:43.722Z,17.40
2018-07-12T21:26:12.275Z,17.28
2018-07-12T21:28:40.907Z,16.87
2018-07-12T21:31:09.648Z,16.87
2018-07-12T21:33:38.266Z,16.90
2018-07-12T21:36:06.874Z,16.94
2018-07-12T21:38:35.408Z,17.05
2018-07-12T21:41:04.012Z,17.18
2018-07-12T21:43:32.784Z,17.27
2018-07-12T21:46:01.697Z,17.28
2018-07-12T21:48:30.295Z,17.05
2018-07-12T21:50:58.948Z,16.98
2018-07-12T21:53:27.597Z,16.94
2018-07-12T21:55:56.639Z,16.86
2018-07-12T21:58:25.180Z,16.83
2018-07-12T22:00:53.800Z,16.90
2018-07-12T22:03:22.580Z,16.98
2018-07-12T22:05:54.194Z,17.08
2018-07-12T22:08:28.425Z,17.08
2018-07-12T22:11:00.626Z,17.00
2018-07-12T22:13:29.916Z,17.02
2018-07-12T22:15:58.612Z,17.02
2018-07-12T22:18:27.201Z,16.98
2018-07-12T22:20:55.835Z,16.86
2018-07-12T22:23:24.652Z,16.75
2018-07-12T22:25:53.263Z,16.71
2018-07-12T22:28:22.008Z,16.72
2018-07-12T22:30:50.760Z,16.64
2018-07-12T22:33:19.514Z,16.52
2018-07-12T22:35:48.204Z,16.34
2018-07-12T22:38:16.756Z,16.16
2018-07-12T22:40:45.555Z,16.09
2018-07-12T22:43:14.208Z,16.10
2018-07-12T22:45:42.825Z,16.13
2018-07-12T22:48:11.487Z,16.20
2018-07-12T22:50:40.057Z,16.20
2018-07-12T22:53:08.670Z,16.14
2018-07-12T22:55:37.433Z,16.14
2018-07-12T22:58:06.128Z,16.07
2018-07-12T23:00:34.732Z,16.01
2018-07-12T23:03:03.514Z,15.99
2018-07-12T23:05:32.232Z,15.98
2018-07-12T23:08:00.796Z,15.92
2018-07-12T23:10:29.902Z,15.93
2018-07-12T23:12:58.521Z,15.88
2018-07-12T23:15:27.226Z,15.77
2018-07-12T23:17:55.826Z,15.65
2018-07-12T23:20:24.601Z,15.64
2018-07-12T23:22:53.549Z,15.70
2018-07-12T23:25:22.194Z,15.58
2018-07-12T23:27:50.753Z,15.49
2018-07-12T23:30:19.513Z,15.53
2018-07-12T23:32:48.127Z,15.60
2018-07-12T23:35:16.823Z,15.58
2018-07-12T23:37:45.508Z,15.67
2018-07-12T23:40:14.090Z,15.73
2018-07-12T23:42:42.704Z,15.79
2018-07-12T23:45:11.828Z,15.82
2018-07-12T23:47:40.514Z,15.83
2018-07-12T23:50:09.060Z,15.83
2018-07-12T23:52:37.652Z,15.79
2018-07-12T23:55:06.268Z,15.77
2018-07-12T23:57:34.971Z,15.73
